createdAt,value
2023-02-12T00:01:25.240Z,61.50
2023-02-12T00:06:30.577Z,57.70
2023-02-12T00:11:38.547Z,68.37
2023-02-12T00:16:44.185Z,63.63
2023-02-12T00:21:49.307Z,62.73
2023-02-12T00:26:56.970Z,66.60
2023-02-12T00:32:02.172Z,59.03
2023-02-12T00:37:07.106Z,68.20
2023-02-12T00:42:15.049Z,67.57
2023-02-12T00:47:20.367Z,69.93
2023-02-12T00:52:28.531Z,63.43
2023-02-12T00:57:36.303Z,67.33
2023-02-12T01:02:44.475Z,67.20
2023-02-12T01:07:53.179Z,76.27
2023-02-12T01:13:02.482Z,62.97
2023-02-12T01:18:08.472Z,71.17
2023-02-12T01:23:14.596Z,69.60
2023-02-12T01:28:24.349Z,65.53
2023-02-12T01:33:29.522Z,61.87
2023-02-12T01:38:34.579Z,66.63
2023-02-12T01:43:43.514Z,63.30
2023-02-12T01:48:51.206Z,70.17
2023-02-12T01:53:58.358Z,65.57
2023-02-12T01:59:06.202Z,66.10
2023-02-12T02:04:15.644Z,109.27
2023-02-12T02:09:22.904Z,64.73
2023-02-12T02:14:36.524Z,67.03
2023-02-12T02:19:59.272Z,66.40
2023-02-12T02:25:38.906Z,65.10
2023-02-12T02:30:56.448Z,63.57
2023-02-12T02:36:13.236Z,66.30
2023-02-12T02:41:22.774Z,59.13
2023-02-12T02:46:35.402Z,65.53
2023-02-12T02:51:46.246Z,63.67
2023-02-12T02:56:58.183Z,74.47
2023-02-12T03:02:12.132Z,63.77
2023-02-12T03:07:22.933Z,57.63
2023-02-12T03:12:34.339Z,64.23
2023-02-12T03:17:47.426Z,61.57
2023-02-12T03:22:57.017Z,57.97
2023-02-12T03:28:07.565Z,56.70
2023-02-12T03:33:23.224Z,57.63
2023-02-12T03:38:37.438Z,57.60
2023-02-12T03:43:51.674Z,62.33
2023-02-12T03:49:06.423Z,57.57
2023-02-12T03:54:18.572Z,60.93
2023-02-12T03:59:25.115Z,53.43
2023-02-12T04:04:35.330Z,50.90
2023-02-12T04:09:42.895Z,53.17
2023-02-12T04:14:55.696Z,53.23
2023-02-12T04:20:15.548Z,50.83
2023-02-12T04:25:32.947Z,54.43
2023-02-12T04:30:45.646Z,47.40
2023-02-12T04:35:58.066Z,52.93
2023-02-12T04:41:03.275Z,46.87
2023-02-12T04:46:12.573Z,47.17
2023-02-12T04:51:20.418Z,57.00
2023-02-12T04:56:25.314Z,64.97
2023-02-12T05:01:31.447Z,53.30
2023-02-12T05:06:44.489Z,51.80
2023-02-12T05:11:51.511Z,52.67
2023-02-12T05:16:56.460Z,86.77
2023-02-12T05:22:04.179Z,62.60
2023-02-12T05:27:09.243Z,64.03
2023-02-12T05:32:14.324Z,66.43
2023-02-12T05:37:21.823Z,70.17
2023-02-12T05:42:26.828Z,68.27
2023-02-12T05:47:33.836Z,68.20
2023-02-12T05:52:43.649Z,54.13
2023-02-12T05:57:48.585Z,65.30
2023-02-12T06:02:53.715Z,67.93
2023-02-12T06:08:02.701Z,91.53
2023-02-12T06:13:13.480Z,56.73
2023-02-12T06:18:18.393Z,55.00
2023-02-12T06:23:27.276Z,85.70
2023-02-12T06:28:32.237Z,62.80
2023-02-12T06:33:38.361Z,62.87
2023-02-12T06:38:46.319Z,75.37
2023-02-12T06:43:53.356Z,61.23
2023-02-12T06:48:59.151Z,62.07
2023-02-12T06:54:06.956Z,54.27
2023-02-12T06:59:16.984Z,59.20
2023-02-12T07:04:21.871Z,53.47
2023-02-12T07:09:29.811Z,59.40
2023-02-12T07:14:34.714Z,59.43
2023-02-12T07:19:42.168Z,51.90
2023-02-12T07:24:50.816Z,54.13
2023-02-12T07:29:55.954Z,55.20
2023-02-12T07:35:00.935Z,53.27
2023-02-12T07:40:10.644Z,61.13
2023-02-12T07:45:20.280Z,56.77
2023-02-12T07:50:28.221Z,51.50
2023-02-12T07:55:37.910Z,51.70
2023-02-12T08:00:42.863Z,49.97
2023-02-12T08:05:47.908Z,57.93
2023-02-12T08:11:02.647Z,49.53
2023-02-12T08:16:14.903Z,49.70
2023-02-12T08:21:22.147Z,48.03
2023-02-12T08:26:34.354Z,45.37
2023-02-12T08:31:46.566Z,50.17
2023-02-12T08:36:54.193Z,46.73
2023-02-12T08:42:03.364Z,41.63
2023-02-12T08:47:10.215Z,43.93
2023-02-12T08:52:15.548Z,37.63
2023-02-12T08:57:24.253Z,42.27
2023-02-12T09:02:29.223Z,41.83
2023-02-12T09:07:36.895Z,40.00
2023-02-12T09:12:48.543Z,46.87
2023-02-12T09:17:54.478Z,41.37
2023-02-12T09:23:00.781Z,44.53
2023-02-12T09:28:09.219Z,48.00
2023-02-12T09:33:15.458Z,45.43
2023-02-12T09:38:20.598Z,46.27
2023-02-12T09:43:37.209Z,42.43
2023-02-12T09:49:01.252Z,39.90
2023-02-12T09:54:09.223Z,34.87
2023-02-12T09:59:24.575Z,40.90
2023-02-12T10:04:31.210Z,39.17
2023-02-12T10:09:54.973Z,32.90
2023-02-12T10:15:30.056Z,35.73
2023-02-12T10:20:51.048Z,40.93
2023-02-12T10:25:57.942Z,35.10
2023-02-12T10:31:10.693Z,34.97
2023-02-12T10:36:27.005Z,30.20
2023-02-12T10:41:36.923Z,33.77
2023-02-12T10:46:44.651Z,34.90
2023-02-12T10:52:17.207Z,37.50
2023-02-12T10:57:26.960Z,28.03
2023-02-12T11:02:38.035Z,30.03
2023-02-12T11:07:51.892Z,28.97
2023-02-12T11:13:00.718Z,26.23
2023-02-12T11:18:11.586Z,26.63
2023-02-12T11:23:29.894Z,27.00
2023-02-12T11:28:37.144Z,23.07
2023-02-12T11:33:45.784Z,21.20
2023-02-12T11:38:54.734Z,24.10
2023-02-12T11:44:00.174Z,26.03
2023-02-12T11:49:09.574Z,23.33
2023-02-12T11:54:25.233Z,25.37
2023-02-12T11:59:38.114Z,27.10
2023-02-12T12:04:46.829Z,24.80
2023-02-12T12:09:58.733Z,24.30
2023-02-12T12:15:21.250Z,22.53
2023-02-12T12:20:35.491Z,21.67
2023-02-12T12:25:48.226Z,23.13
2023-02-12T12:31:05.073Z,20.43
2023-02-12T12:36:38.121Z,22.53
2023-02-12T12:41:59.354Z,20.47
2023-02-12T12:47:19.484Z,20.80
2023-02-12T12:52:49.814Z,22.40
2023-02-12T12:58:04.415Z,19.00
2023-02-12T13:03:37.571Z,22.17
2023-02-12T13:09:06.795Z,16.43
2023-02-12T13:14:28.141Z,20.00
2023-02-12T13:19:46.980Z,17.23
2023-02-12T13:25:00.772Z,21.23
2023-02-12T13:30:10.532Z,20.77
2023-02-12T13:35:23.656Z,16.30
2023-02-12T13:40:43.242Z,17.10
2023-02-12T13:45:56.990Z,17.03
2023-02-12T13:51:11.695Z,22.57
2023-02-12T13:56:32.331Z,27.37
2023-02-12T14:01:43.316Z,17.90
2023-02-12T14:06:59.727Z,23.97
2023-02-12T14:12:10.218Z,22.87
2023-02-12T14:17:45.555Z,18.57
2023-02-12T14:23:04.112Z,20.60
2023-02-12T14:28:30.373Z,20.83
2023-02-12T14:33:35.953Z,22.27
2023-02-12T14:39:03.658Z,23.90
2023-02-12T14:44:50.209Z,18.70
2023-02-12T14:49:58.197Z,15.83
2023-02-12T14:55:08.154Z,22.90
2023-02-12T15:00:26.770Z,18.80
2023-02-12T15:05:35.423Z,21.03
2023-02-12T15:10:45.902Z,19.53
2023-02-12T15:16:01.187Z,21.57
2023-02-12T15:21:17.142Z,22.13
2023-02-12T15:26:34.285Z,23.07
2023-02-12T15:31:42.345Z,16.83
2023-02-12T15:36:49.609Z,15.73
2023-02-12T15:41:55.912Z,18.73
2023-02-12T15:47:06.566Z,13.30
2023-02-12T15:52:14.662Z,16.77
2023-02-12T15:57:27.334Z,20.13
2023-02-12T16:02:38.240Z,15.73
2023-02-12T16:07:46.337Z,18.67
2023-02-12T16:12:53.231Z,19.97
2023-02-12T16:18:04.550Z,16.83
2023-02-12T16:23:10.307Z,16.97
2023-02-12T16:28:30.291Z,25.67
2023-02-12T16:33:51.412Z,18.50
2023-02-12T16:39:00.460Z,26.23
2023-02-12T16:44:29.802Z,21.77
2023-02-12T16:49:37.937Z,23.80
2023-02-12T16:54:42.879Z,20.30
2023-02-12T16:59:47.925Z,23.63
2023-02-12T17:05:01.033Z,24.93
2023-02-12T17:10:06.372Z,23.60
2023-02-12T17:15:19.022Z,26.37
2023-02-12T17:20:26.615Z,25.03
2023-02-12T17:25:32.015Z,27.13
2023-02-12T17:30:37.821Z,21.87
2023-02-12T17:35:45.600Z,21.83
2023-02-12T17:40:53.519Z,25.37
2023-02-12T17:45:59.652Z,25.47
2023-02-12T17:51:09.567Z,26.73
2023-02-12T17:56:15.073Z,25.87
2023-02-12T18:01:25.475Z,26.00
2023-02-12T18:06:34.514Z,24.63
2023-02-12T18:11:42.294Z,23.33
2023-02-12T18:16:47.465Z,24.83
2023-02-12T18:21:55.161Z,28.10
2023-02-12T18:27:08.530Z,25.83
2023-02-12T18:32:18.151Z,30.57
2023-02-12T18:37:27.539Z,31.23
2023-02-12T18:42:33.506Z,33.67
2023-02-12T18:47:38.627Z,42.07
2023-02-12T18:52:46.508Z,46.37
2023-02-12T18:57:52.205Z,37.77
2023-02-12T19:02:57.191Z,39.67
2023-02-12T19:08:04.819Z,34.60
2023-02-12T19:13:09.974Z,36.73
2023-02-12T19:18:16.568Z,35.33
2023-02-12T19:23:24.590Z,35.20
2023-02-12T19:28:32.747Z,32.53
2023-02-12T19:33:39.203Z,39.37
2023-02-12T19:38:48.267Z,36.53
2023-02-12T19:43:56.328Z,39.83
2023-02-12T19:49:10.000Z,40.97
2023-02-12T19:54:24.151Z,46.43
2023-02-12T19:59:30.637Z,39.63
2023-02-12T20:04:37.181Z,40.07
2023-02-12T20:09:45.178Z,54.13
2023-02-12T20:14:51.217Z,37.40
2023-02-12T20:19:58.778Z,45.47
2023-02-12T20:25:09.474Z,57.57
2023-02-12T20:30:16.070Z,54.00
2023-02-12T20:35:24.808Z,74.00
2023-02-12T20:40:34.968Z,53.23
2023-02-12T20:45:42.633Z,61.10
2023-02-12T20:50:47.733Z,128.17
2023-02-12T20:55:56.796Z,78.43
2023-02-12T21:01:12.639Z,58.80
2023-02-12T21:06:22.957Z,47.60
2023-02-12T21:11:33.809Z,39.10
2023-02-12T21:16:41.211Z,57.20
2023-02-12T21:21:48.228Z,43.07
2023-02-12T21:26:57.674Z,46.03
2023-02-12T21:32:04.418Z,37.87
2023-02-12T21:37:10.883Z,40.93
2023-02-12T21:42:18.562Z,34.43
2023-02-12T21:47:23.428Z,31.77
2023-02-12T21:52:30.806Z,31.77
2023-02-12T21:57:40.741Z,36.57
2023-02-12T22:02:45.775Z,42.13
2023-02-12T22:07:54.426Z,39.93
2023-02-12T22:13:04.491Z,60.80
2023-02-12T22:18:09.357Z,44.70
2023-02-12T22:23:16.661Z,62.77
2023-02-12T22:28:26.407Z,72.07
2023-02-12T22:33:31.484Z,76.60
2023-02-12T22:38:40.657Z,69.83
2023-02-12T22:43:48.250Z,92.50
2023-02-12T22:48:53.278Z,50.50
2023-02-12T22:54:00.020Z,33.33
2023-02-12T22:59:09.259Z,28.77
2023-02-12T23:04:20.315Z,24.93
2023-02-12T23:09:25.328Z,23.03
2023-02-12T23:14:35.134Z,27.00
2023-02-12T23:19:44.336Z,23.83
2023-02-12T23:24:51.003Z,20.47
2023-02-12T23:29:59.009Z,20.17
2023-02-12T23:35:05.998Z,20.60
2023-02-12T23:40:13.117Z,21.87
2023-02-12T23:45:21.024Z,27.27
2023-02-12T23:50:26.484Z,27.03
2023-02-12T23:55:35.050Z,25.17
